Tiempo atmosférico en la estación meteorológica de San Bartolome Tirajana, Lomo Pedro Alfonso, Las Palmas (806 m.)



Fecha
DESCASC
Temp. máxima en grados centígrados (hora)
DESCASC
Temp. mínima en grados centígrados (hora)
DESCASC
Temp. media en grados centígrados
DESCASC
Racha de viento máxima en m/sg (hora)
DESCASC
Velocidad máxima media en intervalos de 10 minutos(hora)
DESCASC
Precipitaciones diarias en mm
DESCASC
Precipitaciones de 00:00 a 06:00 en mm
DESCASC
Precipitaciones de 06:00 a 12:00 en mm
DESCASC
Precipitaciones de 12:00 a 18:00 en mm
DESCASC
Precipitaciones de 18:00 a 24:00 en mm
DESCASC
19-01-2020 22 (13:50) 13.6 (23:59) 17.8 11.11 (01:20) 8.61 (01:00) 0 0 0 0 0
18-01-2020 21.5 (15:20) 13 (08:20) 17.3 11.39 (03:50) 7.22 (04:00) 0 0 0 0 0
17-01-2020 20.1 (15:00) 11.1 (00:00) 15.6 8.61 (23:40) 5.56 (23:50) 0 0 0 0 0
16-01-2020 18.7 (16:20) 10.6 (00:00) 14.7 8.89 (14:50) 4.44 (14:20) 0 0 0 0 0
15-01-2020 16.9 (13:30) 9.6 (00:00) 13.3 8.89 (15:00) 5.28 (14:30) 0 0 0 0 0
14-01-2020 16.4 (15:30) 10.1 (00:00) 13.3 8.33 (13:00) 5 (12:50) 0 0 0 0 0
13-01-2020 17.4 (15:20) 12.3 (00:00) 14.8 11.39 (00:50) 6.67 (00:50) 0 0 0 0 0
12-01-2020 18.4 (16:00) 9.3 (00:00) 13.8 10.28 (23:59) 6.39 (21:00) 0 0 0 0 0
11-01-2020 15.9 (13:20) 9.9 (00:00) 12.9 5.83 (14:10) 3.33 (14:30) 0 0 0 0 0
10-01-2020 17.3 (12:40) 10.3 (00:00) 13.8 6.11 (16:10) 3.33 (16:10) 0 0 0 0 0
09-01-2020 18.1 (16:30) 9.8 (00:00) 14 7.22 (14:10) 3.61 (14:40) 0 0 0 0 0
08-01-2020 18.4 (16:20) 10.1 (00:00) 14.3 8.89 (16:50) 6.39 (20:10) 0 0 0 0 0
07-01-2020 16.5 (13:30) 10.6 (00:00) 13.6 10.28 (10:30) 6.39 (07:10) 0 0 0 0 0
06-01-2020 17.8 (16:10) 9.8 (00:00) 13.8 16.39 (19:40) 8.33 (19:40) 0 0 0 0 0
05-01-2020 19.3 (14:30) 10.8 (00:00) 15 7.22 (16:40) 3.89 (15:10) 0 0 0 0 0
04-01-2020 20.1 (14:30) 10.8 (00:00) 15.5 11.39 (01:20) 6.94 (00:50) 0 0 0 0 0
03-01-2020 15.9 (16:50) 9.9 (00:00) 12.9 12.22 (12:00) 8.06 (04:00) 0 0 0 0 0
02-01-2020 16.4 (16:20) 10.1 (00:00) 13.3 12.22 (01:20) 7.5 (21:20) 0 0 0 0 0
01-01-2020 16.7 (16:30) 11.6 (00:00) 14.2 11.39 (01:20) 7.78 (02:10) 0 0 0 0 0
31-12-2019 20.3 (16:10) 13.7 (00:00) 17 9.72 (23:50) 6.67 (23:59) 0 0 0 0 0
30-12-2019 -- (--) -- (--) -- -- (--) -- (--) -- 0 0 -- 0
29-12-2019 23.9 (15:00) 16.1 (00:00) 20 10 (05:50) 6.39 (00:10) 0 0 0 0 0
28-12-2019 23.7 (15:50) 18.1 (00:00) 20.9 9.72 (23:59) 6.94 (08:30) 0 0 0 0 0
27-12-2019 23.9 (14:00) 16.6 (00:00) 20.3 13.33 (09:20) 7.78 (09:10) 0 0 0 0 0
26-12-2019 22.7 (14:50) 16.2 (00:00) 19.5 12.22 (10:00) 6.67 (04:50) 0 0 0 0 0
25-12-2019 23.5 (12:30) 17.8 (00:00) 20.6 12.5 (19:10) 8.89 (19:10) 0 0 0 0 0
24-12-2019 23.3 (13:40) 17.4 (00:00) 20.3 10.28 (02:50) 6.11 (02:50) 0 0 0 0 0
23-12-2019 23 (16:00) 12.7 (00:00) 17.8 7.5 (07:20) 5.83 (07:20) 0 0 0 0 0

Gráficas

Temp. máximas Temp. mínimas Temp. medias Precipitaciones Rachas de viento máximas Velocidades máximas media en intervalos de 10 minutos

Datos horarios

Fecha y hora oficial Temperatura (ºC) Velocidad del viento (km/h) Dirección del viento Racha (km/h) Dirección de racha Precipitación (mm) Presión (hPa) Tendencia (hPa) Humedad (%)
2020-01-21 22:00:00 -- -- -- -- -- -- -- -- --
2020-01-21 21:00:00 9.7 6 Noroeste 14 Norte 0 -- -- 85
2020-01-21 20:00:00 9.9 0 Calma 6 Sudeste 0 -- -- 87
2020-01-21 19:00:00 10.1 0 Calma 8 Este 0 -- -- 87
2020-01-21 18:00:00 10.4 3 Sudeste 15 Sur 1 -- -- 84
2020-01-21 17:00:00 11.3 5 Sudoeste 17 Sur 0 -- -- 74
2020-01-21 16:00:00 11.7 12 Sudoeste 20 Sur 0 -- -- 71
2020-01-21 15:00:00 12.7 8 Sur 20 Oeste 0 -- -- 66
2020-01-21 14:00:00 13.6 13 Noroeste 37 Noroeste 0 -- -- 51
2020-01-21 13:00:00 12.3 16 Noroeste 41 Noroeste 0 -- -- 56
2020-01-21 12:00:00 13 18 Noroeste 28 Norte 0 -- -- 60
2020-01-21 11:00:00 12.6 12 Noroeste 31 Noroeste 0 -- -- 57
2020-01-21 10:00:00 9.7 9 Noroeste 24 Noroeste 0 -- -- 66
2020-01-21 09:00:00 9 7 Norte 19 Norte 0 -- -- 66
2020-01-21 08:00:00 8.5 12 Nordeste 22 Nordeste 0 -- -- 70
2020-01-21 07:00:00 8.8 5 Noroeste 23 Norte 0 -- -- 70
2020-01-21 06:00:00 8.8 11 Noroeste 35 Noroeste 0 -- -- 67
2020-01-21 05:00:00 9 12 Norte 34 Nordeste 0 -- -- 68
2020-01-21 04:00:00 9.3 21 Norte 37 Nordeste 0 -- -- 70
2020-01-21 03:00:00 9.2 13 Norte 22 Norte 0 -- -- 74
2020-01-21 02:00:00 9.4 4 Sur 8 Sur 0 -- -- 84
2020-01-21 01:00:00 9.7 4 Nordeste 13 Nordeste 0 -- -- 79
2020-01-21 00:00:00 10.2 10 Nordeste 16 Nordeste 0 -- -- 71
2020-01-20 23:00:00 10.3 9 Nordeste 14 Nordeste 0 -- -- 74
2020-01-20 22:00:00 10.4 4 Este 14 Nordeste 0 -- -- 82
2020-01-20 21:00:00 10.8 11 Nordeste 36 Nordeste 0 -- -- 66
2020-01-20 20:00:00 10.9 3 Nordeste 21 Oeste 0 -- -- 69
2020-01-20 19:00:00 12.2 10 Oeste 22 Oeste 0 -- -- 82
2020-01-20 18:00:00 13.2 8 Oeste 17 Oeste 0 -- -- 78
2020-01-20 17:00:00 13.3 7 Oeste 21 Sudoeste 0 -- -- 79
2020-01-20 16:00:00 14.3 11 Oeste 28 Oeste 0 -- -- 74
2020-01-20 15:00:00 15.4 13 Oeste 24 Oeste 0 -- -- 69
2020-01-20 14:00:00 15 9 Oeste 20 Sudoeste 0 -- -- 70
2020-01-20 13:00:00 15.9 8 Oeste 18 Oeste 0 -- -- 67
2020-01-20 12:00:00 15.4 5 Oeste 12 Sudoeste 0 -- -- 63
2020-01-20 11:00:00 12.3 4 Oeste 17 Noroeste 0 -- -- 66
2020-01-20 10:00:00 12 6 Oeste 10 Noroeste 0 -- -- 70
2020-01-20 09:00:00 11.6 0 Calma 13 Sur 0 -- -- 85
2020-01-20 08:00:00 11.4 0 Calma 9 Sur 0 -- -- 90
2020-01-20 07:00:00 11 3 Sudeste 9 Sur 0 -- -- 91
2020-01-20 06:00:00 10.9 5 Sur 12 Nordeste 0 -- -- 91
2020-01-20 05:00:00 10.6 4 Sur 6 Sudoeste 0 -- -- 89
2020-01-20 04:00:00 11.5 0 Calma 7 Oeste 0 -- -- 78
2020-01-20 03:00:00 12 4 Nordeste 6 Este 0 -- -- 60
2020-01-20 02:00:00 13 2 Sur 5 Sur 0 -- -- 59
2020-01-20 01:00:00 13.4 0 Calma 4 Oeste 0 -- -- 57
2020-01-20 00:00:00 13.6 2 Norte 5 Norte 0 -- -- 57
2020-01-19 23:00:00 14.4 0 Calma 5 Nordeste 0 -- -- 53
2020-01-19 22:00:00 14.4 0 Calma 5 Nordeste 0 -- -- 61
2020-01-19 21:00:00 14.1 2 Norte 5 Nordeste 0 -- -- 70
2020-01-19 20:00:00 14.3 0 Calma 7 Nordeste 0 -- -- 69
2020-01-19 19:00:00 15.6 3 Este 5 Sur 0 -- -- 64
2020-01-19 18:00:00 17.5 2 Noroeste 13 Oeste 0 -- -- 57
2020-01-19 17:00:00 19.6 6 Oeste 18 Oeste 0 -- -- 47
2020-01-19 16:00:00 20.3 9 Oeste 19 Oeste 0 -- -- 44
2020-01-19 15:00:00 21.5 11 Oeste 23 Oeste 0 -- -- 43
2020-01-19 14:00:00 21.8 10 Oeste 18 Noroeste 0 -- -- 33
2020-01-19 13:00:00 20.9 8 Sudoeste 13 Oeste 0 -- -- 28
2020-01-19 12:00:00 19.9 5 Oeste 10 Oeste 0 -- -- 22
2020-01-19 11:00:00 18.4 3 Oeste 16 Sur 0 -- -- 18
2020-01-19 10:00:00 15.4 2 Nordeste 6 Norte 0 -- -- 14
2020-01-19 09:00:00 15.6 0 Calma 15 Nordeste 0 -- -- 16
2020-01-19 08:00:00 15.4 12 Nordeste 23 Este 0 -- -- 15
2020-01-19 07:00:00 15.6 15 Nordeste 29 Nordeste 0 -- -- 16
2020-01-19 06:00:00 15.3 16 Nordeste 26 Nordeste 0 -- -- 16
2020-01-19 05:00:00 15.4 17 Norte 28 Norte 0 -- -- 15
2020-01-19 04:00:00 15.5 17 Nordeste 28 Nordeste 0 -- -- 15
2020-01-19 03:00:00 16.2 18 Nordeste 33 Nordeste 0 -- -- 16
2020-01-19 02:00:00 16 19 Nordeste 40 Norte 0 -- -- 16
2020-01-19 01:00:00 16 31 Nordeste 39 Norte 0 -- -- 15
2020-01-19 00:00:00 16.3 8 Nordeste 26 Norte 0 -- -- 7
2020-01-18 23:00:00 17.6 22 Nordeste 35 Nordeste 0 -- -- 7
2020-01-18 22:00:00 17.3 24 Nordeste 36 Nordeste 0 -- -- 8
2020-01-18 21:00:00 16.7 24 Nordeste 33 Nordeste 0 -- -- 9
2020-01-18 20:00:00 16.5 21 Nordeste 28 Nordeste 0 -- -- 12
2020-01-18 19:00:00 16.8 5 Este 15 Este 0 -- -- 23
2020-01-18 18:00:00 19.2 5 Sudoeste 17 Sudoeste 0 -- -- 38
2020-01-18 17:00:00 20.6 6 Oeste 15 Sudoeste 0 -- -- 31
2020-01-18 16:00:00 21.4 8 Oeste 18 Oeste 0 -- -- 31
2020-01-18 15:00:00 21.1 9 Oeste 20 Oeste 0 -- -- 29
2020-01-18 14:00:00 20.1 11 Sur 26 Sur 0 -- -- 25
2020-01-18 13:00:00 19.1 8 Sudeste 24 Este 0 -- -- 21
2020-01-18 12:00:00 18.7 13 Nordeste 29 Norte 0 -- -- 17
2020-01-18 11:00:00 17.4 10 Norte 28 Este 0 -- -- 17
2020-01-18 10:00:00 14.9 12 Norte 27 Nordeste 0 -- -- 21
2020-01-18 09:00:00 13.5 14 Norte 27 Norte 0 -- -- 25
2020-01-18 08:00:00 13.2 6 Norte 27 Nordeste 0 -- -- 25
2020-01-18 07:00:00 13.4 15 Norte 30 Norte 0 -- -- 24
2020-01-18 06:00:00 13.4 11 Norte 30 Norte 0 -- -- 22
2020-01-18 05:00:00 14 16 Norte 38 Nordeste 0 -- -- 21
2020-01-18 04:00:00 14.4 26 Norte 41 Nordeste 0 -- -- 22
2020-01-18 03:00:00 14.8 22 Norte 36 Nordeste 0 -- -- 22
2020-01-18 02:00:00 15.3 16 Norte 27 Norte 0 -- -- 19
2020-01-18 01:00:00 15.2 14 Norte 27 Nordeste 0 -- -- 18
2020-01-18 00:00:00 14.9 18 Norte 31 Norte 0 -- -- 17
2020-01-17 23:00:00 15 17 Nordeste 27 Nordeste 0 -- -- 13
2020-01-17 22:00:00 14.6 15 Nordeste 23 Norte 0 -- -- 17
2020-01-17 21:00:00 13.8 9 Nordeste 17 Nordeste 0 -- -- 25
2020-01-17 20:00:00 14.5 4 Este 10 Este 0 -- -- 30
2020-01-17 19:00:00 14.9 0 Calma 14 Oeste 0 -- -- 47
2020-01-17 18:00:00 17.6 9 Oeste 19 Oeste 0 -- -- 45
2020-01-17 17:00:00 18.7 12 Oeste 22 Oeste 0 -- -- 42
2020-01-17 16:00:00 19.6 13 Oeste 28 Oeste 0 -- -- 38
2020-01-17 15:00:00 20.1 14 Oeste 25 Oeste 0 -- -- 36
2020-01-17 14:00:00 19.3 8 Sudeste 19 Sudeste 0 -- -- 25
2020-01-17 13:00:00 17.5 10 Este 23 Sudeste 0 -- -- 28
2020-01-17 12:00:00 16.5 9 Este 25 Este 0 -- -- 28
2020-01-17 11:00:00 15.9 6 Nordeste 26 Nordeste 0 -- -- 25
2020-01-17 10:00:00 13.5 8 Nordeste 29 Nordeste 0 -- -- 27
2020-01-17 09:00:00 12.6 16 Nordeste 26 Nordeste 0 -- -- 28
2020-01-17 08:00:00 11.8 13 Nordeste 20 Nordeste 0 -- -- 28
2020-01-17 07:00:00 12.1 8 Nordeste 19 Nordeste 0 -- -- 26
2020-01-17 06:00:00 12.6 13 Nordeste 21 Nordeste 0 -- -- 22
2020-01-17 05:00:00 12.8 11 Este 24 Nordeste 0 -- -- 20
2020-01-17 04:00:00 13 20 Nordeste 26 Nordeste 0 -- -- 13
2020-01-17 03:00:00 12.2 8 Nordeste 14 Norte 0 -- -- 15
2020-01-17 02:00:00 12.2 3 Nordeste 12 Este 0 -- -- 18
2020-01-17 01:00:00 12.3 9 Este 13 Este 0 -- -- 23
2020-01-17 00:00:00 11.1 3 Nordeste 4 Nordeste 0 -- -- 56
2020-01-16 23:00:00 11.1 4 Nordeste 14 Nordeste 0 -- -- 41
2020-01-16 22:00:00 11 6 Nordeste 9 Nordeste 0 -- -- 50
2020-01-16 21:00:00 11.7 0 Calma 4 Sur 0 -- -- 56
2020-01-16 20:00:00 12 0 Calma 6 Oeste 0 -- -- 59
2020-01-16 19:00:00 13.3 6 Sudoeste 15 Oeste 0 -- -- 55
2020-01-16 18:00:00 16.5 10 Oeste 22 Oeste 0 -- -- 47
2020-01-16 17:00:00 17.8 11 Oeste 21 Oeste 0 -- -- 43
2020-01-16 16:00:00 18.2 10 Oeste 25 Sudoeste 0 -- -- 41
2020-01-16 15:00:00 17 14 Sur 32 Sudoeste 0 -- -- 45
2020-01-16 14:00:00 16.3 14 Sur 28 Sur 0 -- -- 52
2020-01-16 13:00:00 16.7 12 Sudoeste 24 Oeste 0 -- -- 40
2020-01-16 12:00:00 16.1 11 Sudoeste 23 Sur 0 -- -- 36
2020-01-16 11:00:00 15.2 9 Sur 20 Sur 0 -- -- 35
2020-01-16 10:00:00 12.5 5 Este 14 Este 0 -- -- 34
2020-01-16 09:00:00 11.4 9 Nordeste 18 Nordeste 0 -- -- 36
2020-01-16 08:00:00 10.7 16 Nordeste 20 Nordeste 0 -- -- 36
2020-01-16 07:00:00 10.8 14 Nordeste 17 Nordeste 0 -- -- 36
2020-01-16 06:00:00 10.7 12 Nordeste 14 Nordeste 0 -- -- 36
2020-01-16 05:00:00 11 10 Nordeste 14 Nordeste 0 -- -- 35
2020-01-16 04:00:00 11.2 9 Nordeste 16 Nordeste 0 -- -- 35
2020-01-16 03:00:00 11.1 12 Nordeste 15 Nordeste 0 -- -- 35
2020-01-16 02:00:00 10.9 10 Nordeste 17 Nordeste 0 -- -- 35
2020-01-16 01:00:00 11 11 Nordeste 17 Nordeste 0 -- -- 35
2020-01-16 00:00:00 11.5 11 Nordeste 18 Nordeste 0 -- -- 33
2020-01-15 23:00:00 11.8 13 Nordeste 24 Nordeste 0 -- -- 33
2020-01-15 22:00:00 11.7 15 Nordeste 27 Nordeste 0 -- -- 33
2020-01-15 21:00:00 11.6 11 Nordeste 23 Nordeste 0 -- -- 34
2020-01-15 20:00:00 11.5 14 Nordeste 19 Nordeste 0 -- -- 41
2020-01-15 19:00:00 12.5 10 Este 20 Este 0 -- -- 42
2020-01-15 18:00:00 14.9 7 Sur 23 Sur 0 -- -- 46
2020-01-15 17:00:00 15.4 14 Sur 26 Sur 0 -- -- 53
2020-01-15 16:00:00 15.9 18 Sur 28 Sudoeste 0 -- -- 45
2020-01-15 15:00:00 16.4 19 Sur 32 Sudoeste 0 -- -- 39
2020-01-15 14:00:00 16.7 17 Sur 30 Sur 0 -- -- 37
2020-01-15 13:00:00 16.2 8 Sur 27 Sur 0 -- -- 40
2020-01-15 12:00:00 15.6 13 Sur 28 Sur 0 -- -- 38
2020-01-15 11:00:00 14.6 7 Sudeste 22 Sudeste 0 -- -- 30
2020-01-15 10:00:00 12 5 Este 16 Nordeste 0 -- -- 33
2020-01-15 09:00:00 10.9 11 Nordeste 15 Nordeste 0 -- -- 35
2020-01-15 08:00:00 9.7 10 Nordeste 14 Este 0 -- -- 38
2020-01-15 07:00:00 10.3 9 Este 13 Nordeste 0 -- -- 37
2020-01-15 06:00:00 10.1 12 Nordeste 16 Nordeste 0 -- -- 37
2020-01-15 05:00:00 10.1 9 Nordeste 18 Nordeste 0 -- -- 38
2020-01-15 04:00:00 10.4 10 Nordeste 15 Nordeste 0 -- -- 37
2020-01-15 03:00:00 11.1 9 Nordeste 15 Este 0 -- -- 36
2020-01-15 02:00:00 10.6 12 Nordeste 15 Nordeste 0 -- -- 37
2020-01-15 01:00:00 10.4 10 Nordeste 15 Nordeste 0 -- -- 38
2020-01-15 00:00:00 10.1 10 Nordeste 16 Nordeste 0 -- -- 39
2020-01-14 23:00:00 10.5 8 Nordeste 14 Nordeste 0 -- -- 39
2020-01-14 22:00:00 10.3 9 Nordeste 14 Nordeste 0 -- -- 41
2020-01-14 21:00:00 10.8 10 Nordeste 14 Nordeste 0 -- -- 41
2020-01-14 20:00:00 11 8 Nordeste 13 Nordeste 0 -- -- 43
2020-01-14 19:00:00 11.6 8 Nordeste 13 Sur 0 -- -- 52
2020-01-14 18:00:00 13.7 9 Sur 25 Sudoeste 0 -- -- 48
2020-01-14 17:00:00 15.2 15 Sudoeste 27 Sur 0 -- -- 35
2020-01-14 16:00:00 15.9 12 Sudoeste 27 Sudoeste 0 -- -- 36
2020-01-14 15:00:00 15.9 14 Sur 27 Sur 0 -- -- 46
2020-01-14 14:00:00 15.6 14 Sur 29 Sudoeste 0 -- -- 38
2020-01-14 13:00:00 15.2 17 Sur 30 Sur 0 -- -- 38
2020-01-14 12:00:00 14.9 13 Sur 28 Sur 0 -- -- 50
2020-01-14 11:00:00 13.9 10 Sur 23 Sur 0 -- -- 49
2020-01-14 10:00:00 11.6 8 Este 19 Este 0 -- -- 57
2020-01-14 09:00:00 10.8 8 Este 17 Este 0 -- -- 75
2020-01-14 08:00:00 10.7 8 Nordeste 22 Este 0 -- -- 77
2020-01-14 07:00:00 11.3 10 Este 19 Este 0 -- -- 49
2020-01-14 06:00:00 11.2 9 Nordeste 21 Nordeste 0 -- -- 44
2020-01-14 05:00:00 11.8 10 Nordeste 21 Sudeste 0 -- -- 42
2020-01-14 04:00:00 12.2 8 Nordeste 18 Nordeste 0 -- -- 37
2020-01-14 03:00:00 12.3 10 Nordeste 18 Este 0 -- -- 35
2020-01-14 02:00:00 12.7 9 Nordeste 18 Este 0 -- -- 34
2020-01-14 01:00:00 12.6 8 Nordeste 14 Este 0 -- -- 33
2020-01-14 00:00:00 12.4 9 Nordeste 13 Este 0 -- -- 33
2020-01-13 23:00:00 12.8 8 Este 19 Nordeste 0 -- -- 33
2020-01-13 22:00:00 12.8 7 Este 19 Nordeste 0 -- -- 34
2020-01-13 21:00:00 12.5 11 Nordeste 18 Este 0 -- -- 36
2020-01-13 20:00:00 12.8 8 Este 17 Este 0 -- -- 36
2020-01-13 19:00:00 12.9 8 Este 17 Este 0 -- -- 38
2020-01-13 18:00:00 14.9 8 Sur 18 Sur 0 -- -- 38
2020-01-13 17:00:00 15.4 17 Sur 27 Sur 0 -- -- 49
2020-01-13 16:00:00 16.8 14 Sur 27 Sur 0 -- -- 45
2020-01-13 15:00:00 17.1 16 Sur 29 Sur 0 -- -- 46
2020-01-13 14:00:00 16.6 17 Sur 32 Sudoeste 0 -- -- 47
2020-01-13 13:00:00 16.4 15 Sur 27 Sur 0 -- -- 55
2020-01-13 12:00:00 16.9 13 Sur 28 Sur 0 -- -- 48
2020-01-13 11:00:00 16 13 Sur 24 Sur 0 -- -- 46
2020-01-13 10:00:00 13.8 6 Este 18 Este 0 -- -- 50
2020-01-13 09:00:00 12.9 10 Nordeste 17 Nordeste 0 -- -- 50
2020-01-13 08:00:00 12.5 14 Nordeste 28 Nordeste 0 -- -- 52
2020-01-13 07:00:00 12.4 14 Nordeste 27 Nordeste 0 -- -- 53
2020-01-13 06:00:00 12.6 15 Nordeste 41 Nordeste 0 -- -- 54
2020-01-13 05:00:00 12.6 20 Nordeste 36 Nordeste 0 -- -- 51
2020-01-13 04:00:00 12.6 21 Nordeste 38 Nordeste 0 -- -- 46
2020-01-13 03:00:00 12.9 21 Norte 35 Nordeste 0 -- -- 43
2020-01-13 02:00:00 13.3 23 Norte 39 Nordeste 0 -- -- 38
2020-01-13 01:00:00 13.4 19 Norte 41 Nordeste 0 -- -- 34
2020-01-13 00:00:00 13.6 21 Nordeste 37 Nordeste 0 -- -- 34
2020-01-12 23:00:00 13.4 14 Nordeste 33 Nordeste 0 -- -- 34
2020-01-12 22:00:00 12.9 14 Norte 33 Nordeste 0 -- -- 34
2020-01-12 21:00:00 13.4 23 Nordeste 32 Nordeste 0 -- -- 30
2020-01-12 20:00:00 13.1 14 Norte 24 Norte 0 -- -- 33
2020-01-12 19:00:00 13.2 12 Nordeste 22 Norte 0 -- -- 45
2020-01-12 18:00:00 16.4 9 Oeste 26 Oeste 0 -- -- 51
2020-01-12 17:00:00 17.3 9 Oeste 20 Oeste 0 -- -- 42
2020-01-12 16:00:00 18.4 10 Oeste 30 Sur 0 -- -- 41
2020-01-12 15:00:00 17.4 14 Sudoeste 30 Oeste 0 -- -- 49
2020-01-12 14:00:00 17.3 7 Norte 17 Sudoeste 0 -- -- 55
2020-01-12 13:00:00 17.3 10 Oeste 19 Oeste 0 -- -- 59
2020-01-12 12:00:00 15.2 5 Sudoeste 10 Oeste 0 -- -- 64
2020-01-12 11:00:00 13.1 4 Sudeste 12 Nordeste 0 -- -- 73
2020-01-12 10:00:00 10.7 2 Este 11 Sur 0 -- -- 83
2020-01-12 09:00:00 9.9 5 Este 11 Nordeste 0 -- -- 83
2020-01-12 08:00:00 9.3 5 Nordeste 11 Oeste 0 -- -- 83
2020-01-12 07:00:00 9.3 6 Oeste 12 Noroeste 0 -- -- 84
2020-01-12 06:00:00 9.6 0 Calma 15 Nordeste 0 -- -- 84
2020-01-12 05:00:00 9.6 7 Nordeste 10 Nordeste 0 -- -- 86
2020-01-12 04:00:00 9.9 3 Sudoeste 6 Sudoeste 0 -- -- 89
2020-01-12 03:00:00 10.2 4 Sur 9 Sudoeste 0 -- -- 86
2020-01-12 02:00:00 10.4 0 Calma 3 Oeste 0 -- -- 82
2020-01-12 01:00:00 10.6 3 Norte 7 Noroeste 0 -- -- 89
2020-01-12 00:00:00 10.6 3 Norte 6 Norte 0 -- -- 89
2020-01-11 23:00:00 11 0 Calma 5 Oeste 0 -- -- 87
2020-01-11 22:00:00 11.8 0 Calma 8 Oeste 0 -- -- 83
2020-01-11 21:00:00 12 3 Sudoeste 10 Sudoeste 0 -- -- 87
2020-01-11 20:00:00 12.1 5 Sudoeste 10 Sudoeste 0 -- -- 85
2020-01-11 19:00:00 12.5 4 Sudoeste 13 Sudoeste 0 -- -- 78
2020-01-11 18:00:00 13.1 6 Sudoeste 15 Sudoeste 0 -- -- 75
2020-01-11 17:00:00 13.4 8 Sur 12 Sudoeste 0 -- -- 75
2020-01-11 16:00:00 13.8 5 Oeste 18 Oeste 0 -- -- 76
2020-01-11 15:00:00 13.7 6 Oeste 21 Oeste 0 -- -- 77
2020-01-11 14:00:00 14.8 10 Oeste 21 Sudoeste 0 -- -- 74
2020-01-11 13:00:00 15.1 9 Oeste 17 Oeste 0 -- -- 71
2020-01-11 12:00:00 14.9 9 Oeste 15 Sudoeste 0 -- -- 72
2020-01-11 11:00:00 12.5 4 Sudoeste 9 Noroeste 0 -- -- 81
2020-01-11 10:00:00 11.7 6 Noroeste 13 Oeste 0 -- -- 87
2020-01-11 09:00:00 10.6 7 Noroeste 11 Noroeste 0 -- -- 93
2020-01-11 08:00:00 10.2 0 Calma 6 Sudoeste 0 -- -- 93
2020-01-11 07:00:00 10.1 3 Sudeste 13 Sur 0 -- -- 92
2020-01-11 06:00:00 10.3 0 Calma 4 Sur 0 -- -- 84
2020-01-11 05:00:00 10.5 0 Calma 7 Este 0 -- -- 82
2020-01-11 04:00:00 10.6 2 Este 13 Este 0 -- -- 81
2020-01-11 03:00:00 10.8 3 Sur 6 Sudoeste 0 -- -- 85
2020-01-11 02:00:00 11.3 4 Sur 6 Sur 0 -- -- 79
2020-01-11 01:00:00 11.5 0 Calma 7 Nordeste 0 -- -- 75
2020-01-11 00:00:00 11.1 0 Calma 11 Nordeste 0 -- -- 87
2020-01-10 23:00:00 11.7 0 Calma 9 Nordeste 0 -- -- 90
2020-01-10 22:00:00 11.9 0 Calma 7 Oeste 0 -- -- 89
2020-01-10 21:00:00 12.2 3 Noroeste 5 Noroeste 0 -- -- 88
2020-01-10 20:00:00 12.9 5 Sur 9 Sur 0 -- -- 87
2020-01-10 19:00:00 13.3 3 Sur 13 Sudoeste 0 -- -- 85
2020-01-10 18:00:00 14.6 8 Sudoeste 19 Oeste 0 -- -- 78
2020-01-10 17:00:00 15.2 9 Oeste 22 Oeste 0 -- -- 74
2020-01-10 16:00:00 15.6 9 Oeste 20 Noroeste 0 -- -- 77
2020-01-10 15:00:00 16 6 Oeste 18 Oeste 0 -- -- 76
2020-01-10 14:00:00 16.9 10 Oeste 21 Oeste 0 -- -- 71
2020-01-10 13:00:00 16.1 9 Sudoeste 20 Sudoeste 0 -- -- 70
2020-01-10 12:00:00 16.3 5 Oeste 9 Oeste 0 -- -- 67
2020-01-10 11:00:00 14 3 Sudoeste 6 Sudoeste 0 -- -- 75
2020-01-10 10:00:00 11 2 Sudoeste 8 Sur 0 -- -- 81
2020-01-10 09:00:00 10.4 6 Sur 10 Sur 0 -- -- 80
2020-01-10 08:00:00 10.7 4 Sur 9 Sur 0 -- -- 76
2020-01-10 07:00:00 10.7 2 Sur 10 Sur 0 -- -- 73
2020-01-10 06:00:00 11 2 Este 13 Este 0 -- -- 69
2020-01-10 05:00:00 11 3 Sudoeste 10 Sudoeste 0 -- -- 71
2020-01-10 04:00:00 10.8 5 Sudeste 7 Sur 0 -- -- 72
2020-01-10 03:00:00 10.7 7 Nordeste 18 Este 0 -- -- 64
2020-01-10 02:00:00 10.5 5 Sur 9 Sur 0 -- -- 86
2020-01-10 01:00:00 10.6 0 Calma 13 Nordeste 0 -- -- 87
2020-01-10 00:00:00 10.7 4 Este 13 Sur 0 -- -- 80
2020-01-09 23:00:00 10.8 3 Norte 10 Este 0 -- -- 75
2020-01-09 22:00:00 11 4 Sudeste 7 Este 0 -- -- 75
2020-01-09 21:00:00 11.8 3 Sudeste 12 Este 0 -- -- 73
2020-01-09 20:00:00 11.9 4 Nordeste 12 Sur 0 -- -- 74
2020-01-09 19:00:00 12.8 8 Sur 17 Oeste 0 -- -- 72
2020-01-09 18:00:00 16 10 Oeste 20 Oeste 0 -- -- 60
2020-01-09 17:00:00 17.9 11 Oeste 20 Oeste 0 -- -- 55
2020-01-09 16:00:00 17.8 10 Oeste 22 Sudoeste 0 -- -- 57
2020-01-09 15:00:00 18 11 Oeste 26 Oeste 0 -- -- 55
2020-01-09 14:00:00 17.5 11 Oeste 23 Oeste 0 -- -- 57
2020-01-09 13:00:00 16.7 10 Oeste 20 Sudoeste 0 -- -- 61
2020-01-09 12:00:00 15.3 6 Sur 15 Oeste 0 -- -- 61
2020-01-09 11:00:00 13.6 3 Oeste 5 Este 0 -- -- 59
2020-01-09 10:00:00 10.7 2 Nordeste 5 Sudoeste 0 -- -- 65
2020-01-09 09:00:00 10.1 0 Calma 12 Sur 0 -- -- 69
2020-01-09 08:00:00 10.3 7 Sur 9 Sur 0 -- -- 61
2020-01-09 07:00:00 9.9 5 Sur 9 Sudeste 0 -- -- 66
2020-01-09 06:00:00 10.4 0 Calma 4 Nordeste 0 -- -- 63
2020-01-09 05:00:00 10 0 Calma 11 Nordeste 0 -- -- 62
2020-01-09 04:00:00 10.2 3 Norte 10 Sudeste 0 -- -- 67
2020-01-09 03:00:00 10.5 0 Calma 6 Sudoeste 0 -- -- 67
2020-01-09 02:00:00 10.3 4 Sudeste 10 Este 0 -- -- 63
2020-01-09 01:00:00 10.7 4 Este 11 Nordeste 0 -- -- 63
2020-01-09 00:00:00 11.1 3 Este 15 Nordeste 0 -- -- 60
2020-01-08 23:00:00 11 13 Nordeste 20 Norte 0 -- -- 59
2020-01-08 22:00:00 11.1 11 Nordeste 15 Nordeste 0 -- -- 59
2020-01-08 21:00:00 11.6 5 Nordeste 30 Norte 0 -- -- 58
2020-01-08 20:00:00 12.3 12 Nordeste 21 Norte 0 -- -- 63
2020-01-08 19:00:00 13.6 4 Oeste 16 Sudoeste 0 -- -- 70
2020-01-08 18:00:00 15.2 8 Oeste 22 Oeste 0 -- -- 59
2020-01-08 17:00:00 17.2 12 Oeste 32 Oeste 0 -- -- 58
2020-01-08 16:00:00 18.1 12 Oeste 26 Oeste 0 -- -- 55
2020-01-08 15:00:00 17.9 14 Oeste 28 Oeste 0 -- -- 53
2020-01-08 14:00:00 17.3 13 Oeste 23 Oeste 0 -- -- 50
2020-01-08 13:00:00 16.2 10 Oeste 20 Noroeste 0 -- -- 50
2020-01-08 12:00:00 15.4 8 Oeste 17 Oeste 0 -- -- 49
2020-01-08 11:00:00 14.4 4 Sudoeste 11 Oeste 0 -- -- 51
2020-01-08 10:00:00 11.4 3 Oeste 20 Este 0 -- -- 57
2020-01-08 09:00:00 11.1 13 Norte 26 Nordeste 0 -- -- 55
2020-01-08 08:00:00 10.3 4 Nordeste 10 Nordeste 0 -- -- 62
2020-01-08 07:00:00 10.3 4 Sur 8 Sur 0 -- -- 62
2020-01-08 06:00:00 10.2 7 Nordeste 12 Nordeste 0 -- -- 60
2020-01-08 05:00:00 10.6 6 Norte 19 Nordeste 0 -- -- 59
2020-01-08 04:00:00 10.7 5 Nordeste 22 Nordeste 0 -- -- 56
2020-01-08 03:00:00 10.8 2 Oeste 20 Nordeste 0 -- -- 53
2020-01-08 02:00:00 10.8 10 Nordeste 17 Este 0 -- -- 54
2020-01-08 01:00:00 10.6 3 Este 8 Sudeste 0 -- -- 63
2020-01-08 00:00:00 10.7 0 Calma 7 Oeste 0 -- -- 74
2020-01-07 23:00:00 11 2 Sudoeste 10 Sudoeste 0 -- -- 72
2020-01-07 22:00:00 11.2 8 Sur 11 Sur 0 -- -- 66
2020-01-07 21:00:00 11.6 6 Sur 9 Sur 0 -- -- 58
2020-01-07 20:00:00 12 6 Sur 13 Sudoeste 0 -- -- 54
2020-01-07 19:00:00 12.7 8 Nordeste 18 Nordeste 0 -- -- 37
2020-01-07 18:00:00 14.2 16 Nordeste 25 Nordeste 0 -- -- 26
2020-01-07 17:00:00 15.4 15 Nordeste 33 Norte 0 -- -- 25
2020-01-07 16:00:00 16 13 Nordeste 28 Sudeste 0 -- -- 26
2020-01-07 15:00:00 15.8 9 Este 30 Sudeste 0 -- -- 27
2020-01-07 14:00:00 15.6 13 Este 30 Este 0 -- -- 38
2020-01-07 13:00:00 15.6 15 Norte 34 Norte 0 -- -- 41
2020-01-07 12:00:00 14.2 13 Nordeste 36 Norte 0 -- -- 46
2020-01-07 11:00:00 13.1 19 Nordeste 37 Nordeste 0 -- -- 57
2020-01-07 10:00:00 11.3 18 Nordeste 32 Nordeste 0 -- -- 65
2020-01-07 09:00:00 11 17 Nordeste 33 Nordeste 0 -- -- 68
2020-01-07 08:00:00 10.9 18 Nordeste 36 Nordeste 0 -- -- 65
2020-01-07 07:00:00 11.4 17 Nordeste 31 Nordeste 0 -- -- 68
2020-01-07 06:00:00 11.3 20 Nordeste 35 Nordeste 0 -- -- 68
2020-01-07 05:00:00 11.6 6 Sur 28 Nordeste 0 -- -- 61
2020-01-07 04:00:00 11.4 3 Nordeste 11 Sudoeste 0 -- -- 71
2020-01-07 03:00:00 11.6 2 Noroeste 15 Este 0 -- -- 70
2020-01-07 02:00:00 11.7 5 Sur 11 Sur 0 -- -- 69
2020-01-07 01:00:00 11.7 0 Calma 10 Sur 0 -- -- 65
2020-01-07 00:00:00 12 4 Norte 13 Nordeste 0 -- -- 66
2020-01-06 23:00:00 12.2 6 Sur 18 Norte 0 -- -- 66
2020-01-06 22:00:00 12.6 6 Noroeste 15 Oeste 0 -- -- 68
2020-01-06 21:00:00 12.9 2 Sur 42 Nordeste 0 -- -- 67
2020-01-06 20:00:00 13.1 22 Norte 59 Nordeste 0 -- -- 54
2020-01-06 19:00:00 12.9 10 Este 23 Nordeste 0 -- -- 64
2020-01-06 18:00:00 15.1 10 Sudoeste 24 Oeste 0 -- -- 64
2020-01-06 17:00:00 17 11 Oeste 25 Oeste 0 -- -- 58
2020-01-06 16:00:00 17.4 10 Oeste 22 Oeste 0 -- -- 56
2020-01-06 15:00:00 14.5 10 Sudoeste 25 Oeste 0 -- -- 65
2020-01-06 14:00:00 15.3 7 Sudoeste 24 Oeste 0 -- -- 61
2020-01-06 13:00:00 14.8 10 Oeste 19 Oeste 0 -- -- 63
2020-01-06 12:00:00 14.5 7 Oeste 13 Noroeste 0 -- -- 64
2020-01-06 11:00:00 13.9 5 Oeste 9 Sur 0 -- -- 62
2020-01-06 10:00:00 10.9 0 Calma 5 Norte 0 -- -- 76
2020-01-06 09:00:00 10.6 0 Calma 8 Nordeste 0 -- -- 79